ZBTJ

Tianjin Binhai International Airport

ICAO Code ZBTJ
IATA Code TSN
Name Tianjin Binhai International Airport
Location Tianjin, Tianjin, CN
Elevation 10 Feet / 3 Meters
Latitude 39.12440109
Longitude 117.34600067
METAR ZBTJ 251630Z 34003MPS 1000 R34R/P2000U R34L/P2000N BR OVC004 15/14 Q1006 NOSIG
Extra information Display Charts
Runway Length Width Surface Elevation
16R 10811 ft 164 ft CON 8 ft
34L 10811 ft 164 ft CON 8 ft